createdAt,value
2019-03-25T00:01:24.524Z,3.73
2019-03-25T00:03:55.052Z,3.73
2019-03-25T00:06:25.501Z,3.64
2019-03-25T00:09:04.992Z,3.72
2019-03-25T00:11:28.431Z,3.78
2019-03-25T00:13:58.958Z,3.85
2019-03-25T00:16:29.482Z,3.82
2019-03-25T00:18:59.918Z,3.83
2019-03-25T00:21:30.309Z,3.82
2019-03-25T00:24:00.728Z,3.93
2019-03-25T00:26:31.237Z,3.92
2019-03-25T00:29:01.670Z,3.67
2019-03-25T00:31:32.106Z,3.57
2019-03-25T00:34:02.464Z,3.62
2019-03-25T00:36:33.055Z,3.69
2019-03-25T00:39:04.236Z,3.59
2019-03-25T00:41:34.622Z,3.62
2019-03-25T00:44:05.199Z,3.75
2019-03-25T00:46:35.619Z,3.88
2019-03-25T00:49:06.155Z,4.01
2019-03-25T00:51:36.572Z,3.82
2019-03-25T00:54:07.045Z,3.97
2019-03-25T00:56:37.505Z,4.03
2019-03-25T00:59:09.446Z,3.93
2019-03-25T01:01:39.890Z,3.89
2019-03-25T01:04:10.321Z,3.66
2019-03-25T01:06:40.728Z,3.57
2019-03-25T01:09:11.168Z,3.80
2019-03-25T01:11:49.054Z,3.88
2019-03-25T01:14:13.754Z,3.96
2019-03-25T01:16:44.236Z,4.04
2019-03-25T01:19:14.708Z,3.75
2019-03-25T01:21:45.138Z,3.77
2019-03-25T01:24:15.715Z,3.64
2019-03-25T01:26:46.193Z,3.85
2019-03-25T01:29:16.599Z,3.75
2019-03-25T01:31:47.023Z,3.85
2019-03-25T01:34:17.469Z,3.84
2019-03-25T01:36:47.931Z,4.07
2019-03-25T01:39:18.322Z,4.03
2019-03-25T01:41:48.753Z,4.18
2019-03-25T01:44:19.183Z,4.09
2019-03-25T01:46:49.636Z,4.07
2019-03-25T01:49:20.062Z,3.92
2019-03-25T01:51:50.858Z,3.82
2019-03-25T01:54:21.271Z,3.86
2019-03-25T01:56:51.668Z,3.88
2019-03-25T01:59:22.141Z,3.99
2019-03-25T02:01:52.621Z,3.96
2019-03-25T02:04:22.987Z,4.05
2019-03-25T02:06:53.367Z,3.85
2019-03-25T02:09:23.831Z,3.65
2019-03-25T02:11:54.221Z,3.74
2019-03-25T02:14:24.693Z,3.80
2019-03-25T02:16:55.157Z,3.63
2019-03-25T02:19:25.601Z,3.50
2019-03-25T02:21:56.015Z,3.41
2019-03-25T02:24:26.447Z,3.41
2019-03-25T02:26:56.872Z,3.29
2019-03-25T02:29:27.320Z,3.22
2019-03-25T02:31:57.757Z,3.24
2019-03-25T02:34:28.286Z,3.20
2019-03-25T02:36:58.765Z,3.24
2019-03-25T02:39:29.252Z,3.26
2019-03-25T02:41:59.909Z,3.48
2019-03-25T02:44:30.463Z,3.41
2019-03-25T02:47:03.172Z,3.23
2019-03-25T02:49:33.732Z,3.44
2019-03-25T02:52:04.247Z,3.47
2019-03-25T02:54:36.521Z,3.45
2019-03-25T02:57:07.023Z,3.38
2019-03-25T02:59:37.568Z,3.11
2019-03-25T03:02:07.992Z,2.84
2019-03-25T03:04:38.491Z,3.10
2019-03-25T03:07:08.973Z,3.08
2019-03-25T03:09:39.492Z,2.88
2019-03-25T03:12:10.018Z,2.93
2019-03-25T03:14:40.584Z,2.94
2019-03-25T03:17:10.983Z,2.92
2019-03-25T03:19:41.601Z,2.80
2019-03-25T03:22:12.235Z,2.70
2019-03-25T03:24:42.695Z,2.83
2019-03-25T03:27:13.127Z,2.80
2019-03-25T03:29:43.625Z,2.74
2019-03-25T03:32:14.150Z,2.68
2019-03-25T03:34:44.617Z,2.71
2019-03-25T03:37:15.070Z,2.68
2019-03-25T03:39:45.493Z,2.44
2019-03-25T03:42:15.920Z,2.38
2019-03-25T03:44:46.321Z,2.34
2019-03-25T03:47:16.765Z,2.49
2019-03-25T03:49:47.275Z,2.67
2019-03-25T03:52:17.756Z,2.71
2019-03-25T03:54:48.190Z,2.84
2019-03-25T03:57:18.614Z,2.91
2019-03-25T03:59:49.189Z,2.81
2019-03-25T04:02:19.736Z,3.00
2019-03-25T04:04:50.126Z,3.20
2019-03-25T04:07:20.685Z,3.23
2019-03-25T04:09:51.109Z,3.23
2019-03-25T04:12:21.675Z,3.29
2019-03-25T04:14:52.184Z,3.38
2019-03-25T04:17:22.493Z,3.40
2019-03-25T04:19:52.893Z,3.32
2019-03-25T04:22:23.321Z,3.48
2019-03-25T04:24:53.743Z,3.35
2019-03-25T04:27:24.247Z,3.40
2019-03-25T04:29:54.662Z,3.50
2019-03-25T04:32:25.304Z,3.58
2019-03-25T04:34:55.735Z,3.60
2019-03-25T04:37:26.162Z,3.62
2019-03-25T04:39:56.675Z,3.72
2019-03-25T04:42:27.119Z,3.89
2019-03-25T04:44:57.712Z,3.96
2019-03-25T04:47:28.108Z,3.89
2019-03-25T04:50:02.906Z,3.91
2019-03-25T04:53:00.170Z,4.10
2019-03-25T04:55:20.585Z,4.22
2019-03-25T04:57:52.765Z,4.33
2019-03-25T05:00:32.402Z,4.35
2019-03-25T05:03:05.641Z,4.41
2019-03-25T05:05:36.434Z,4.87
2019-03-25T05:08:06.972Z,5.74
2019-03-25T05:10:37.412Z,5.92
2019-03-25T05:13:07.853Z,6.08
2019-03-25T05:15:38.342Z,6.04
2019-03-25T05:18:08.837Z,6.24
2019-03-25T05:20:39.262Z,6.84
2019-03-25T05:23:09.820Z,6.63
2019-03-25T05:25:40.527Z,6.47
2019-03-25T05:28:10.973Z,6.48
2019-03-25T05:30:41.544Z,5.80
2019-03-25T05:33:12.135Z,5.75
2019-03-25T05:35:42.715Z,5.64
2019-03-25T05:38:13.244Z,5.71
2019-03-25T05:40:43.694Z,5.82
2019-03-25T05:43:14.160Z,6.07
2019-03-25T05:45:44.778Z,5.92
2019-03-25T05:48:15.366Z,5.92
2019-03-25T05:50:46.911Z,6.20
2019-03-25T05:53:18.963Z,6.35
2019-03-25T05:55:51.281Z,6.28
2019-03-25T05:58:28.533Z,6.48
2019-03-25T06:01:00.453Z,6.48
2019-03-25T06:03:30.961Z,6.73
2019-03-25T06:06:03.653Z,6.66
2019-03-25T06:08:34.391Z,6.70
2019-03-25T06:11:12.083Z,6.70
2019-03-25T06:14:01.351Z,6.70
2019-03-25T06:16:36.446Z,6.53
2019-03-25T06:19:08.575Z,6.89
2019-03-25T06:21:39.237Z,6.78
2019-03-25T06:24:09.760Z,6.92
2019-03-25T06:26:45.194Z,7.16
2019-03-25T06:29:31.998Z,7.35
2019-03-25T06:32:23.497Z,7.22
2019-03-25T06:35:18.806Z,7.42
2019-03-25T06:37:55.268Z,7.43
2019-03-25T06:40:28.842Z,7.49
2019-03-25T06:42:59.985Z,7.62
2019-03-25T06:45:31.550Z,7.60
2019-03-25T06:48:02.143Z,7.79
2019-03-25T06:50:32.734Z,7.63
2019-03-25T06:53:06.314Z,7.72
2019-03-25T06:55:54.693Z,7.91
2019-03-25T07:01:20.926Z,8.36
2019-03-25T07:03:51.733Z,8.42
2019-03-25T07:06:23.826Z,8.41
2019-03-25T07:08:55.393Z,8.41
2019-03-25T07:11:25.997Z,8.60
2019-03-25T07:13:56.679Z,8.99
2019-03-25T07:16:28.675Z,8.74
2019-03-25T07:18:59.099Z,9.15
2019-03-25T07:21:29.869Z,9.15
2019-03-25T07:24:01.827Z,9.13
2019-03-25T07:26:32.497Z,9.23
2019-03-25T07:29:02.970Z,9.44
2019-03-25T07:31:33.395Z,9.55
2019-03-25T07:34:04.145Z,9.57
2019-03-25T07:36:45.229Z,9.67
2019-03-25T07:39:15.760Z,9.90
2019-03-25T07:41:48.031Z,9.64
2019-03-25T07:44:23.555Z,9.84
2019-03-25T07:46:56.981Z,10.10
2019-03-25T07:49:27.583Z,10.11
2019-03-25T07:51:59.236Z,10.04
2019-03-25T07:54:29.777Z,10.07
2019-03-25T07:57:00.282Z,10.31
2019-03-25T07:59:33.414Z,10.21
2019-03-25T08:02:05.876Z,10.55
2019-03-25T08:04:38.778Z,11.06
2019-03-25T08:07:10.918Z,11.09
2019-03-25T08:09:44.314Z,11.35
2019-03-25T08:12:20.866Z,10.76
2019-03-25T08:14:51.560Z,11.57
2019-03-25T08:17:22.182Z,11.38
2019-03-25T08:19:52.948Z,11.60
2019-03-25T08:22:25.259Z,11.34
2019-03-25T08:25:03.217Z,11.37
2019-03-25T08:27:59.431Z,11.98
2019-03-25T08:30:29.972Z,12.21
2019-03-25T08:33:04.417Z,11.36
2019-03-25T08:35:37.492Z,11.51
2019-03-25T08:38:29.249Z,11.45
2019-03-25T08:41:01.498Z,11.59
2019-03-25T08:43:45.388Z,11.64
2019-03-25T08:46:21.601Z,11.70
2019-03-25T08:48:56.712Z,12.35
2019-03-25T08:51:29.160Z,12.43
2019-03-25T08:54:01.459Z,11.73
2019-03-25T08:56:40.590Z,11.38
2019-03-25T08:59:29.360Z,11.67
2019-03-25T09:02:22.825Z,12.07
2019-03-25T09:04:57.042Z,12.02
2019-03-25T09:07:37.340Z,12.06
2019-03-25T09:10:09.346Z,12.41
2019-03-25T09:12:44.406Z,11.72
2019-03-25T09:15:38.991Z,11.51
2019-03-25T09:18:15.033Z,12.10
2019-03-25T09:20:47.506Z,12.25
2019-03-25T09:24:07.203Z,11.40
2019-03-25T09:26:11.306Z,11.62
2019-03-25T09:28:48.118Z,11.97
2019-03-25T09:31:21.108Z,12.06
2019-03-25T09:33:51.630Z,12.24
2019-03-25T09:36:35.428Z,12.39
2019-03-25T09:39:19.166Z,12.61
2019-03-25T09:42:03.929Z,12.59
2019-03-25T09:44:54.081Z,11.90
2019-03-25T09:47:38.130Z,11.99
2019-03-25T09:50:17.033Z,12.14
2019-03-25T09:52:50.508Z,11.73
2019-03-25T09:55:27.400Z,11.93
2019-03-25T09:57:58.300Z,11.99
2019-03-25T10:00:33.797Z,11.77
2019-03-25T10:03:07.233Z,11.36
2019-03-25T10:05:39.592Z,11.67
2019-03-25T10:08:23.850Z,11.90
2019-03-25T10:10:54.063Z,11.47
2019-03-25T10:13:25.001Z,11.40
2019-03-25T10:15:55.956Z,11.66
2019-03-25T10:18:28.489Z,11.92
2019-03-25T10:21:06.076Z,11.86
2019-03-25T10:23:38.359Z,12.42
2019-03-25T10:26:11.616Z,12.64
2019-03-25T10:28:49.289Z,12.35
2019-03-25T10:31:33.639Z,11.90
2019-03-25T10:34:08.834Z,12.12
2019-03-25T10:36:58.459Z,12.52
2019-03-25T10:39:41.313Z,12.45
2019-03-25T10:42:21.229Z,12.12
2019-03-25T10:44:51.694Z,11.94
2019-03-25T10:47:22.458Z,12.46
2019-03-25T10:49:52.929Z,12.64
2019-03-25T10:52:23.381Z,12.90
2019-03-25T10:57:28.124Z,13.22
2019-03-25T11:00:01.745Z,13.43
2019-03-25T11:02:32.355Z,13.21
2019-03-25T11:05:02.808Z,13.47
2019-03-25T11:07:34.903Z,13.19
2019-03-25T11:10:08.153Z,12.90
2019-03-25T11:12:38.826Z,12.66
2019-03-25T11:15:09.928Z,12.66
2019-03-25T11:17:40.460Z,12.16
2019-03-25T11:20:10.974Z,12.11
2019-03-25T11:22:41.512Z,11.99
2019-03-25T11:25:16.534Z,12.05
2019-03-25T11:27:54.263Z,11.86
2019-03-25T11:30:22.314Z,12.06
2019-03-25T11:32:52.751Z,12.28
2019-03-25T11:35:24.319Z,12.43
2019-03-25T11:37:54.772Z,12.30
2019-03-25T11:40:25.121Z,12.31
2019-03-25T11:42:55.566Z,12.61
2019-03-25T11:45:26.093Z,12.57
2019-03-25T11:47:56.666Z,12.94
2019-03-25T11:50:27.128Z,13.07
2019-03-25T11:52:57.538Z,13.08
2019-03-25T11:55:28.017Z,12.35
2019-03-25T11:57:58.466Z,12.61
2019-03-25T12:00:28.937Z,12.96
2019-03-25T12:02:59.372Z,12.90
2019-03-25T12:05:29.959Z,12.89
2019-03-25T12:08:00.368Z,12.85
2019-03-25T12:10:30.958Z,13.07
2019-03-25T12:13:01.369Z,13.13
2019-03-25T12:15:31.873Z,12.71
2019-03-25T12:18:02.291Z,12.74
2019-03-25T12:20:32.697Z,12.98
2019-03-25T12:23:03.133Z,12.84
2019-03-25T12:25:33.558Z,12.98
2019-03-25T12:28:04.121Z,13.03
2019-03-25T12:30:34.565Z,13.34
2019-03-25T12:33:05.074Z,13.48
2019-03-25T12:35:35.519Z,13.42
2019-03-25T12:38:05.946Z,13.65
2019-03-25T12:40:36.577Z,14.16
2019-03-25T12:43:06.959Z,14.29
2019-03-25T12:45:37.461Z,13.62
2019-03-25T12:48:07.939Z,14.01
2019-03-25T12:50:38.394Z,14.33
2019-03-25T12:53:08.803Z,13.70
2019-03-25T12:55:39.210Z,13.66
2019-03-25T12:58:09.624Z,14.33
2019-03-25T13:00:43.789Z,13.92
2019-03-25T13:03:14.245Z,13.40
2019-03-25T13:05:46.558Z,13.75
2019-03-25T13:08:17.027Z,13.65
2019-03-25T13:10:47.581Z,13.92
2019-03-25T13:13:18.020Z,13.67
2019-03-25T13:15:48.866Z,13.05
2019-03-25T13:18:19.386Z,13.15
2019-03-25T13:20:49.972Z,12.94
2019-03-25T13:23:20.578Z,12.61
2019-03-25T13:25:51.158Z,12.64
2019-03-25T13:28:21.707Z,12.66
2019-03-25T13:30:52.227Z,12.53
2019-03-25T13:33:22.770Z,12.38
2019-03-25T13:35:53.388Z,12.23
2019-03-25T13:38:28.264Z,12.21
2019-03-25T13:40:58.721Z,12.28
2019-03-25T13:43:29.175Z,12.21
2019-03-25T13:46:05.605Z,12.55
2019-03-25T13:48:34.478Z,12.51
2019-03-25T13:51:04.955Z,12.53
2019-03-25T13:53:35.518Z,12.45
2019-03-25T13:56:06.460Z,12.20
2019-03-25T13:58:37.114Z,11.97
2019-03-25T14:01:09.125Z,11.92
2019-03-25T14:03:39.693Z,11.68
2019-03-25T14:06:10.193Z,11.64
2019-03-25T14:08:40.706Z,11.43
2019-03-25T14:11:12.912Z,11.56
2019-03-25T14:13:49.235Z,11.46
2019-03-25T14:16:15.543Z,11.56
2019-03-25T14:18:46.041Z,11.51
2019-03-25T14:21:16.483Z,11.26
2019-03-25T14:23:47.008Z,11.22
2019-03-25T14:26:17.484Z,11.13
2019-03-25T14:28:48.191Z,11.09
2019-03-25T14:31:18.843Z,11.00
2019-03-25T14:33:49.255Z,11.01
2019-03-25T14:36:22.476Z,11.09
2019-03-25T14:38:55.778Z,11.11
2019-03-25T14:41:27.873Z,11.07
2019-03-25T14:43:58.335Z,11.09
2019-03-25T14:46:28.809Z,10.91
2019-03-25T14:48:59.374Z,10.84
2019-03-25T14:51:30.082Z,10.65
2019-03-25T14:54:00.415Z,10.62
2019-03-25T14:56:30.897Z,10.62
2019-03-25T14:59:01.412Z,10.58
2019-03-25T15:01:32.447Z,10.58
2019-03-25T15:04:03.051Z,10.54
2019-03-25T15:06:34.205Z,10.46
2019-03-25T15:09:08.026Z,10.45
2019-03-25T15:11:40.027Z,10.51
2019-03-25T15:14:10.462Z,10.42
2019-03-25T15:16:40.936Z,10.36
2019-03-25T15:19:11.475Z,10.39
2019-03-25T15:21:41.992Z,10.24
2019-03-25T15:24:12.480Z,10.25
2019-03-25T15:26:43.009Z,10.24
2019-03-25T15:29:13.862Z,10.21
2019-03-25T15:31:44.418Z,10.24
2019-03-25T15:34:15.310Z,10.18
2019-03-25T15:36:46.997Z,10.10
2019-03-25T15:39:19.133Z,10.08
2019-03-25T15:41:50.072Z,10.05
2019-03-25T15:44:20.595Z,9.95
2019-03-25T15:46:55.617Z,10.06
2019-03-25T15:49:23.343Z,10.01
2019-03-25T15:51:53.988Z,9.91
2019-03-25T15:54:26.043Z,9.92
2019-03-25T15:56:56.538Z,9.86
2019-03-25T15:59:27.176Z,9.85
2019-03-25T16:01:57.647Z,9.85
2019-03-25T16:04:28.265Z,9.79
2019-03-25T16:07:01.235Z,9.81
2019-03-25T16:09:31.582Z,9.80
2019-03-25T16:12:02.052Z,9.73
2019-03-25T16:14:32.433Z,9.74
2019-03-25T16:17:02.876Z,9.76
2019-03-25T16:19:34.417Z,9.79
2019-03-25T16:22:05.496Z,9.66
2019-03-25T16:24:36.020Z,9.65
2019-03-25T16:27:06.478Z,9.69
2019-03-25T16:29:37.083Z,9.66
2019-03-25T16:32:07.606Z,9.64
2019-03-25T16:34:38.080Z,9.61
2019-03-25T16:37:09.021Z,9.67
2019-03-25T16:39:39.984Z,9.68
2019-03-25T16:42:10.456Z,9.62
2019-03-25T16:44:40.918Z,9.57
2019-03-25T16:47:11.416Z,9.56
2019-03-25T16:49:41.893Z,9.55
2019-03-25T16:52:14.266Z,9.49
2019-03-25T16:54:44.794Z,9.47
2019-03-25T16:57:18.935Z,9.45
2019-03-25T16:59:49.426Z,9.42
2019-03-25T17:02:19.933Z,9.48
2019-03-25T17:04:50.449Z,9.31
2019-03-25T17:07:21.096Z,9.26
2019-03-25T17:09:51.713Z,9.20
2019-03-25T17:12:22.154Z,9.20
2019-03-25T17:14:53.224Z,9.04
2019-03-25T17:17:28.569Z,8.88
2019-03-25T17:19:59.136Z,8.70
2019-03-25T17:22:31.181Z,8.45
2019-03-25T17:25:04.165Z,8.32
2019-03-25T17:27:48.877Z,8.14
2019-03-25T17:30:37.761Z,8.06
2019-03-25T17:33:08.420Z,7.85
2019-03-25T17:35:39.674Z,7.67
2019-03-25T17:38:12.190Z,7.63
2019-03-25T17:40:42.709Z,7.46
2019-03-25T17:43:13.372Z,7.34
2019-03-25T17:45:45.664Z,7.37
2019-03-25T17:48:18.735Z,7.32
2019-03-25T17:50:49.356Z,7.29
2019-03-25T17:53:20.159Z,7.14
2019-03-25T17:55:58.558Z,7.10
2019-03-25T17:58:29.427Z,7.09
2019-03-25T18:01:06.416Z,7.06
2019-03-25T18:03:37.236Z,6.98
2019-03-25T18:06:11.641Z,6.98
2019-03-25T18:08:42.540Z,7.01
2019-03-25T18:11:14.789Z,6.93
2019-03-25T18:13:46.572Z,6.96
2019-03-25T18:16:17.940Z,7.04
2019-03-25T18:18:52.991Z,7.01
2019-03-25T18:21:25.869Z,7.01
2019-03-25T18:23:56.586Z,7.05
2019-03-25T18:26:29.768Z,7.14
2019-03-25T18:29:01.436Z,7.12
2019-03-25T18:31:42.430Z,7.12
2019-03-25T18:34:04.087Z,7.11
2019-03-25T18:36:34.631Z,7.09
2019-03-25T18:39:07.637Z,7.06
2019-03-25T18:41:39.038Z,7.07
2019-03-25T18:44:26.029Z,7.05
2019-03-25T18:46:59.094Z,7.02
2019-03-25T18:49:32.621Z,7.09
2019-03-25T18:52:03.285Z,7.12
2019-03-25T18:54:35.833Z,7.15
2019-03-25T18:57:16.957Z,7.26
2019-03-25T19:00:00.317Z,7.19
2019-03-25T19:02:32.887Z,7.25
2019-03-25T19:05:05.982Z,7.32
2019-03-25T19:07:36.560Z,7.28
2019-03-25T19:10:10.452Z,7.19
2019-03-25T19:12:42.615Z,7.25
2019-03-25T19:15:13.114Z,7.31
2019-03-25T19:17:46.624Z,7.39
2019-03-25T19:20:17.165Z,7.40
2019-03-25T19:22:48.026Z,7.44
2019-03-25T19:25:18.570Z,7.36
2019-03-25T19:27:49.079Z,7.33
2019-03-25T19:30:19.520Z,7.36
2019-03-25T19:32:50.004Z,7.41
2019-03-25T19:35:21.534Z,7.47
2019-03-25T19:37:52.206Z,7.38
2019-03-25T19:40:22.764Z,7.37
2019-03-25T19:42:53.304Z,7.36
2019-03-25T19:45:23.842Z,7.29
2019-03-25T19:47:54.379Z,7.34
2019-03-25T19:50:24.877Z,7.31
2019-03-25T19:52:55.323Z,7.38
2019-03-25T19:55:25.790Z,7.17
2019-03-25T19:57:57.596Z,7.10
2019-03-25T20:00:39.856Z,7.01
2019-03-25T20:03:13.439Z,7.00
2019-03-25T20:05:43.951Z,7.01
2019-03-25T20:08:16.607Z,7.06
2019-03-25T20:10:47.052Z,6.93
2019-03-25T20:13:17.431Z,6.83
2019-03-25T20:15:48.353Z,6.85
2019-03-25T20:18:18.966Z,6.91
2019-03-25T20:20:49.422Z,6.99
2019-03-25T20:23:20.491Z,7.02
2019-03-25T20:25:51.124Z,7.02
2019-03-25T20:28:21.713Z,7.01
2019-03-25T20:30:52.255Z,6.98
2019-03-25T20:33:23.559Z,6.92
2019-03-25T20:35:54.079Z,6.89
2019-03-25T20:38:24.709Z,6.89
2019-03-25T20:40:55.293Z,6.86
2019-03-25T20:43:25.896Z,6.88
2019-03-25T20:45:56.556Z,6.88
2019-03-25T20:48:27.145Z,6.95
2019-03-25T20:50:57.628Z,6.95
2019-03-25T20:53:28.158Z,6.94
2019-03-25T20:55:58.648Z,6.98
2019-03-25T20:58:29.178Z,6.91
2019-03-25T21:00:59.990Z,6.97
2019-03-25T21:03:30.485Z,7.01
2019-03-25T21:06:00.915Z,7.02
2019-03-25T21:08:31.494Z,7.04
2019-03-25T21:11:01.952Z,6.90
2019-03-25T21:13:35.023Z,6.94
2019-03-25T21:16:07.473Z,6.97
2019-03-25T21:18:42.753Z,6.98
2019-03-25T21:21:18.874Z,6.89
2019-03-25T21:23:49.796Z,6.96
2019-03-25T21:26:29.916Z,6.87
2019-03-25T21:29:03.016Z,6.84
2019-03-25T21:31:39.247Z,6.86
2019-03-25T21:34:11.628Z,6.82
2019-03-25T21:36:44.608Z,6.77
2019-03-25T21:39:18.052Z,6.78
2019-03-25T21:41:48.665Z,6.68
2019-03-25T21:44:19.162Z,6.68
2019-03-25T21:46:49.919Z,6.68
2019-03-25T21:49:20.377Z,6.59
2019-03-25T21:51:52.853Z,6.59
2019-03-25T21:54:28.535Z,6.62
2019-03-25T21:56:59.843Z,6.53
2019-03-25T21:59:30.414Z,6.61
2019-03-25T22:02:01.139Z,6.47
2019-03-25T22:04:31.670Z,6.57
2019-03-25T22:07:02.193Z,6.48
2019-03-25T22:09:32.716Z,6.41
2019-03-25T22:12:03.312Z,6.32
2019-03-25T22:14:33.887Z,6.32
2019-03-25T22:17:04.339Z,6.24
2019-03-25T22:19:34.748Z,6.21
2019-03-25T22:22:05.281Z,6.17
2019-03-25T22:24:36.045Z,6.15
2019-03-25T22:27:07.526Z,6.13
2019-03-25T22:29:37.971Z,6.17
2019-03-25T22:32:08.581Z,6.09
2019-03-25T22:34:39.000Z,6.07
2019-03-25T22:37:09.482Z,6.03
2019-03-25T22:39:39.983Z,6.01
2019-03-25T22:42:10.414Z,6.05
2019-03-25T22:44:40.925Z,6.05
2019-03-25T22:47:11.342Z,5.99
2019-03-25T22:49:41.718Z,5.95
2019-03-25T22:52:12.167Z,5.93
2019-03-25T22:54:42.687Z,5.94
2019-03-25T22:57:13.088Z,5.92
2019-03-25T22:59:43.498Z,5.95
2019-03-25T23:02:13.975Z,5.94
2019-03-25T23:04:45.295Z,5.88
2019-03-25T23:07:22.247Z,5.84
2019-03-25T23:10:04.292Z,5.83
2019-03-25T23:12:49.792Z,5.88
2019-03-25T23:15:20.263Z,5.85
2019-03-25T23:17:50.748Z,5.86
2019-03-25T23:20:21.173Z,5.77
2019-03-25T23:22:51.640Z,5.74
2019-03-25T23:25:22.184Z,5.64
2019-03-25T23:27:52.802Z,5.60
2019-03-25T23:30:23.224Z,5.59
2019-03-25T23:32:53.793Z,5.56
2019-03-25T23:35:24.052Z,5.55
2019-03-25T23:37:54.490Z,5.57
2019-03-25T23:40:24.981Z,5.63
2019-03-25T23:42:55.522Z,5.63
2019-03-25T23:46:20.033Z,5.61
2019-03-25T23:48:50.490Z,5.65
2019-03-25T23:51:21.071Z,5.70
2019-03-25T23:53:53.132Z,5.63
2019-03-25T23:56:23.563Z,5.71
2019-03-25T23:58:54.012Z,5.71
